Time;durP1;ratioP1;P1;durP2;ratioP2;P2;SDS_P1;SDS_P2;PMS_P1;PMS_P2;Temp;Humidity;BMP_temperature;BMP_pressure;BME280_temperature;BME280_humidity;BME280_pressure;Samples;Min_cycle;Max_cycle;Signal;HPM_P1;HPM_P2
2023/07/14 00:00:30;;;;;;;;;11.00;9.00;;;;;22.85;43.36;101080.81;5040255;28;45598;-74
2023/07/14 00:02:57;;;;;;;;;10.00;9.00;;;;;22.85;43.21;101083.50;5041963;28;45600;-74
2023/07/14 00:05:27;;;;;;;;;11.00;10.00;;;;;22.82;42.99;101082.03;5038741;28;45536;-79
2023/07/14 00:07:54;;;;;;;;;9.75;9.50;;;;;22.81;43.43;101071.50;5037952;28;45768;-80
2023/07/14 00:10:32;;;;;;;;;9.50;9.00;;;;;22.82;43.07;101067.81;5037837;28;45544;-77
2023/07/14 00:16:23;;;;;;;;;9.00;7.25;;;;;22.77;43.57;101068.38;5038171;28;45621;-73
2023/07/14 00:18:49;;;;;;;;;12.00;10.50;;;;;22.77;43.74;101057.69;5039010;28;45532;-73
2023/07/14 00:21:22;;;;;;;;;10.75;9.75;;;;;22.76;43.31;101058.69;5039163;28;45557;-79
2023/07/14 00:23:48;;;;;;;;;6.50;6.00;;;;;22.73;44.01;101053.66;5038283;28;47437;-81
2023/07/14 00:26:16;;;;;;;;;8.00;8.00;;;;;22.73;44.13;101052.84;5037253;28;45643;-78
2023/07/14 00:28:43;;;;;;;;;6.50;6.25;;;;;22.69;44.25;101054.19;5036892;28;45730;-79
2023/07/14 00:31:14;;;;;;;;;8.25;6.50;;;;;22.67;43.40;101061.56;5037489;28;46335;-75
2023/07/14 00:33:41;;;;;;;;;6.00;5.75;;;;;22.65;43.97;101063.56;5038342;28;47603;-78
2023/07/14 00:36:07;;;;;;;;;7.00;6.75;;;;;22.62;44.22;101048.69;5041632;28;45769;-75
2023/07/14 00:38:34;;;;;;;;;7.00;6.75;;;;;22.59;43.59;101043.72;5043332;28;45666;-76
2023/07/14 00:41:00;;;;;;;;;6.00;6.00;;;;;22.63;43.50;101049.53;5043843;28;46475;-75
2023/07/14 00:43:26;;;;;;;;;5.00;5.00;;;;;22.62;43.51;101056.72;5043166;28;46109;-76
2023/07/14 00:45:55;;;;;;;;;6.50;6.50;;;;;22.63;43.82;101049.53;5042322;28;45733;-77
2023/07/14 00:48:23;;;;;;;;;6.00;5.50;;;;;22.66;44.21;101041.19;5041178;28;45527;-77
2023/07/14 00:51:10;;;;;;;;;5.00;5.00;;;;;22.64;43.95;101041.34;5040073;28;46593;-77
2023/07/14 00:53:38;;;;;;;;;5.00;5.00;;;;;22.63;43.82;101042.34;5039710;28;46319;-75
2023/07/14 00:56:10;;;;;;;;;4.25;3.25;;;;;22.65;43.88;101042.19;5037045;28;45705;-73
2023/07/14 00:58:36;;;;;;;;;5.75;5.00;;;;;22.60;43.63;101032.88;5038142;28;45801;-73
2023/07/14 01:01:12;;;;;;;;;5.50;5.50;;;;;22.64;43.60;101029.84;5038605;28;46574;-76
2023/07/14 01:03:43;;;;;;;;;3.75;3.00;;;;;22.64;44.42;101025.31;5040627;28;46975;-74
2023/07/14 01:06:19;;;;;;;;;4.75;4.25;;;;;22.63;43.77;101020.16;5041788;28;45756;-75
2023/07/14 01:08:53;;;;;;;;;5.75;3.25;;;;;22.63;43.87;101020.16;5041460;28;45702;-77
2023/07/14 01:11:24;;;;;;;;;3.50;3.00;;;;;22.59;44.35;101014.34;5040257;28;46687;-75
2023/07/14 01:13:49;;;;;;;;;4.00;3.75;;;;;22.62;44.12;101018.50;5039932;28;46419;-73
2023/07/14 01:16:16;;;;;;;;;4.75;3.00;;;;;22.60;44.28;101016.00;5041355;28;45767;-76
2023/07/14 01:18:43;;;;;;;;;5.75;4.00;;;;;22.62;43.92;101013.16;5042033;28;45709;-76
2023/07/14 01:21:09;;;;;;;;;3.00;3.00;;;;;22.60;44.44;101008.84;5040680;28;46430;-76
2023/07/14 01:23:46;;;;;;;;;3.50;3.00;;;;;22.63;44.36;101009.47;5040441;28;46425;-78
2023/07/14 01:32:55;;;;;;;;;4.50;3.50;;;;;22.60;44.57;100982.13;5038540;28;45742;-75
2023/07/14 01:35:36;;;;;;;;;4.50;3.00;;;;;22.62;44.48;100991.81;5038548;28;46013;-80
2023/07/14 01:38:02;;;;;;;;;2.25;2.00;;;;;22.63;43.82;100988.94;5037806;28;45660;-74
2023/07/14 01:40:32;;;;;;;;;6.00;5.00;;;;;22.62;44.21;100986.47;5038580;28;45631;-80
2023/07/14 01:43:04;;;;;;;;;5.75;4.75;;;;;22.63;44.19;100988.94;5038821;28;45535;-79
2023/07/14 01:45:45;;;;;;;;;6.00;5.75;;;;;22.64;44.15;100985.25;5039686;28;46301;-75
2023/07/14 01:48:14;;;;;;;;;11.00;8.75;;;;;22.65;43.90;100988.75;5039124;28;45669;-78
2023/07/14 01:50:48;;;;;;;;;8.00;7.00;;;;;22.65;44.65;100975.41;5038974;28;45574;-76
2023/07/14 01:53:38;;;;;;;;;9.00;7.00;;;;;22.65;43.90;100978.06;5038674;28;45619;-77
2023/07/14 01:56:08;;;;;;;;;11.00;9.00;;;;;22.65;43.58;100972.72;5035858;28;48491;-76
2023/07/14 01:58:59;;;;;;;;;6.50;5.00;;;;;22.64;43.95;100971.91;5038750;28;45654;-77
2023/07/14 02:01:26;;;;;;;;;12.50;11.50;;;;;22.61;44.11;100958.91;5039828;28;45876;-77
2023/07/14 02:03:55;;;;;;;;;9.25;8.25;;;;;22.63;43.89;100961.38;5039237;28;45526;-79
2023/07/14 02:06:22;;;;;;;;;14.00;10.25;;;;;22.62;44.62;100970.44;5042563;28;45885;-78
2023/07/14 02:08:48;;;;;;;;;8.75;7.50;;;;;22.59;44.39;100971.59;5041732;28;45669;-74
2023/07/14 02:11:24;;;;;;;;;10.00;8.25;;;;;22.57;44.31;100963.75;5040551;28;45620;-74
2023/07/14 02:13:51;;;;;;;;;11.25;9.50;;;;;22.57;44.40;100965.59;5036286;28;45611;-77
2023/07/14 02:16:17;;;;;;;;;9.25;9.25;;;;;22.56;44.54;100972.78;5038370;28;45868;-75
2023/07/14 02:18:44;;;;;;;;;11.75;9.75;;;;;22.54;44.14;100968.63;5038022;28;45581;-76
2023/07/14 02:21:12;;;;;;;;;13.00;10.75;;;;;22.53;44.64;100972.31;5036796;28;45499;-75
2023/07/14 02:23:40;;;;;;;;;12.75;12.00;;;;;22.53;44.25;100970.47;5036794;28;45618;-77
2023/07/14 02:26:24;;;;;;;;;13.50;12.50;;;;;22.53;44.10;100967.81;5036429;28;46116;-77
2023/07/14 02:28:50;;;;;;;;;9.00;8.50;;;;;22.51;44.39;100969.81;5035692;28;45702;-73
2023/07/14 02:31:23;;;;;;;;;14.25;11.25;;;;;22.50;44.65;100965.50;5036190;28;45531;-73
2023/07/14 02:33:51;;;;;;;;;12.00;10.00;;;;;22.47;44.68;100968.50;5036030;28;46535;-73
2023/07/14 02:36:43;;;;;;;;;12.75;10.00;;;;;22.46;44.13;100969.50;5036176;28;46099;-72
2023/07/14 02:39:09;;;;;;;;;15.25;9.25;;;;;22.45;44.26;100964.38;5035932;28;45484;-77
2023/07/14 02:41:42;;;;;;;;;12.50;11.75;;;;;22.43;44.62;100959.19;5034787;28;45705;-75
2023/07/14 02:44:12;;;;;;;;;10.75;10.00;;;;;22.44;44.77;100957.34;5034598;28;45547;-74
2023/07/14 02:46:47;;;;;;;;;11.25;10.00;;;;;22.43;44.89;100955.69;5034443;28;45980;-76
2023/07/14 02:49:13;;;;;;;;;9.25;8.75;;;;;22.42;44.84;100954.84;5032898;28;45752;-73
2023/07/14 02:51:38;;;;;;;;;9.25;9.25;;;;;22.41;44.61;100955.84;5034709;28;45619;-73
2023/07/14 02:54:07;;;;;;;;;11.75;8.00;;;;;22.40;44.44;100956.88;5036246;28;45598;-75
2023/07/14 02:56:33;;;;;;;;;9.00;8.50;;;;;22.38;44.85;100950.88;5035142;28;45881;-80
2023/07/14 02:58:59;;;;;;;;;9.00;8.00;;;;;22.36;44.73;100950.22;5034950;28;45543;-76
2023/07/14 03:01:25;;;;;;;;;8.00;8.00;;;;;22.36;45.04;100942.22;5036115;28;45539;-73
2023/07/14 03:03:51;;;;;;;;;9.75;8.75;;;;;22.35;45.14;100956.56;5036243;28;45698;-75
2023/07/14 03:06:19;;;;;;;;;7.25;7.25;;;;;22.35;45.08;100953.91;5036086;28;45760;-81
2023/07/14 03:08:44;;;;;;;;;10.75;9.50;;;;;22.33;45.15;100950.59;5034690;28;45535;-76
2023/07/14 03:11:10;;;;;;;;;11.25;10.75;;;;;22.30;45.27;100940.25;5038417;28;45507;-73
2023/07/14 03:13:35;;;;;;;;;10.75;8.00;;;;;22.28;44.85;100934.28;5038392;28;45526;-73
2023/07/14 03:16:01;;;;;;;;;7.50;7.00;;;;;22.27;45.29;100931.78;5035664;28;45639;-73
2023/07/14 03:18:27;;;;;;;;;7.00;6.50;;;;;22.23;45.23;100928.63;5036296;28;45780;-72
2023/07/14 03:20:57;;;;;;;;;7.75;6.00;;;;;22.24;44.95;100918.78;5036119;28;45773;-73
2023/07/14 03:23:22;;;;;;;;;4.75;4.50;;;;;22.22;45.48;100920.78;5035377;28;45577;-73
2023/07/14 03:25:55;;;;;;;;;4.50;3.00;;;;;22.21;45.33;100921.78;5035488;28;46203;-75
2023/07/14 03:28:21;;;;;;;;;8.00;5.50;;;;;22.21;45.06;100925.28;5034952;28;45689;-75
2023/07/14 03:30:46;;;;;;;;;4.50;4.00;;;;;22.21;45.59;100930.63;5035389;28;45876;-76
2023/07/14 03:33:12;;;;;;;;;5.25;5.00;;;;;22.20;45.00;100926.31;5036625;28;45681;-73
2023/07/14 03:35:37;;;;;;;;;5.50;4.00;;;;;22.19;45.43;100921.97;5036976;28;45554;-77
2023/07/14 03:38:03;;;;;;;;;4.75;4.25;;;;;22.18;45.06;100915.00;5037480;28;45659;-76
2023/07/14 03:40:29;;;;;;;;;3.75;3.75;;;;;22.15;45.72;100910.81;5037218;28;45555;-75
2023/07/14 03:42:54;;;;;;;;;5.00;5.00;;;;;22.15;45.58;100912.66;5035101;28;46932;-79
2023/07/14 03:45:20;;;;;;;;;7.00;5.25;;;;;22.15;45.14;100918.81;5034742;28;46260;-74
2023/07/14 03:47:45;;;;;;;;;4.25;4.00;;;;;22.15;45.75;100909.97;5034296;28;45644;-72
2023/07/14 03:50:12;;;;;;;;;5.00;4.75;;;;;22.15;45.34;100904.66;5034236;28;45464;-76
2023/07/14 03:52:37;;;;;;;;;7.50;5.50;;;;;22.14;45.22;100892.31;5036780;28;45553;-73
2023/07/14 03:55:03;;;;;;;;;4.75;3.75;;;;;22.14;45.52;100893.13;5039506;28;45926;-76
2023/07/14 03:57:28;;;;;;;;;5.00;4.00;;;;;22.13;45.46;100888.81;5040153;28;45480;-75
2023/07/14 04:03:15;;;;;;;;;5.25;4.75;;;;;22.13;45.25;100896.81;5037498;28;45472;-74
2023/07/14 04:05:46;;;;;;;;;5.25;4.75;;;;;22.15;45.42;100896.63;5038443;28;46392;-82
2023/07/14 04:08:11;;;;;;;;;5.00;5.00;;;;;22.14;45.94;100893.13;5037427;28;45674;-77
2023/07/14 04:10:36;;;;;;;;;6.00;5.00;;;;;22.18;45.64;100891.78;5038261;28;45665;-77
2023/07/14 04:13:02;;;;;;;;;5.75;5.25;;;;;22.19;45.69;100895.28;5037732;28;45599;-76
2023/07/14 04:15:27;;;;;;;;;7.00;6.00;;;;;22.20;45.45;100894.25;5037642;28;46070;-73
2023/07/14 04:17:52;;;;;;;;;6.25;6.25;;;;;;;;5038855;28;45734;-74
2023/07/14 04:20:18;;;;;;;;;10.00;6.67;;;;;22.19;45.48;100879.25;5038784;28;45501;-75
2023/07/14 04:22:45;;;;;;;;;6.00;6.00;;;;;22.22;46.10;100881.59;5038102;28;45585;-73
2023/07/14 04:25:10;;;;;;;;;8.25;8.25;;;;;22.23;45.83;100887.75;5036710;28;46699;-73
2023/07/14 04:27:37;;;;;;;;;8.00;8.00;;;;;22.24;45.63;100886.75;5036967;28;45618;-73
2023/07/14 04:33:27;;;;;;;;;7.00;7.00;;;;;22.25;45.95;100883.88;5036214;28;45482;-78
2023/07/14 04:35:54;;;;;;;;;8.75;8.00;;;;;22.26;45.49;100885.56;5037482;28;46699;-79
2023/07/14 04:38:22;;;;;;;;;9.00;9.00;;;;;22.28;45.54;100880.88;5037381;28;45659;-79
2023/07/14 04:40:48;;;;;;;;;9.75;8.00;;;;;22.25;46.06;100877.72;5037828;28;45641;-78
2023/07/14 04:43:15;;;;;;;;;8.25;7.50;;;;;22.28;45.69;100869.38;5036723;28;46104;-81
2023/07/14 04:45:42;;;;;;;;;11.50;10.00;;;;;22.28;46.15;100875.53;5036155;28;45856;-73
2023/07/14 04:48:18;;;;;;;;;16.25;12.50;;;;;22.25;45.87;100865.19;5036437;28;45509;-75
2023/07/14 04:50:47;;;;;;;;;9.00;9.00;;;;;22.24;45.65;100868.88;5037364;28;45461;-75
2023/07/14 04:53:13;;;;;;;;;8.75;7.00;;;;;22.25;45.67;100867.88;5036395;28;46700;-75
2023/07/14 04:55:40;;;;;;;;;9.50;9.00;;;;;22.25;45.98;100859.84;5036860;28;46432;-76
2023/07/14 04:58:07;;;;;;;;;6.75;6.50;;;;;22.24;46.13;100842.19;5036575;28;45646;-78
2023/07/14 05:00:34;;;;;;;;;7.25;7.00;;;;;22.24;45.95;100842.19;5036916;28;45507;-82
2023/07/14 05:03:00;;;;;;;;;7.75;7.50;;;;;22.23;46.06;100837.88;5036614;28;45646;-79
2023/07/14 05:05:26;;;;;;;;;9.00;9.00;;;;;22.23;45.71;100835.19;5036338;28;45615;-80
2023/07/14 05:07:52;;;;;;;;;12.00;10.00;;;;;22.21;46.14;100823.84;5039123;28;45668;-76
2023/07/14 05:10:19;;;;;;;;;8.50;7.50;;;;;22.22;46.14;100822.84;5038490;28;45678;-75
2023/07/14 05:12:45;;;;;;;;;5.75;5.00;;;;;22.20;46.04;100811.50;5038931;28;46474;-76
2023/07/14 05:18:32;;;;;;;;;8.25;8.00;;;;;22.20;45.79;100798.16;5038744;28;45626;-73
2023/07/14 05:21:00;;;;;;;;;7.00;6.00;;;;;22.19;46.34;100801.84;5039167;28;45533;-76
2023/07/14 05:23:27;;;;;;;;;5.00;4.25;;;;;22.15;45.99;100771.19;5038681;28;45565;-76
2023/07/14 05:25:53;;;;;;;;;5.75;5.75;;;;;22.15;46.21;100761.34;5038710;28;46028;-76
2023/07/14 05:28:18;;;;;;;;;4.50;4.50;;;;;22.12;46.42;100767.06;5038606;28;45605;-77
2023/07/14 05:30:44;;;;;;;;;3.75;3.75;;;;;22.12;46.16;100787.56;5038619;28;45659;-78
2023/07/14 05:33:12;;;;;;;;;4.00;3.75;;;;;22.10;46.02;100795.75;5039757;28;46485;-77
2023/07/14 05:35:38;;;;;;;;;5.25;5.00;;;;;22.09;46.25;100788.75;5039164;28;45911;-79
2023/07/14 05:38:03;;;;;;;;;4.25;4.00;;;;;22.11;45.91;100786.75;5037351;28;45726;-78
2023/07/14 05:40:31;;;;;;;;;4.75;3.75;;;;;22.09;46.40;100779.91;5038134;28;45619;-77
2023/07/14 05:42:57;;;;;;;;;3.50;3.50;;;;;22.11;46.21;100794.75;5038259;28;45587;-77
2023/07/14 05:48:58;;;;;;;;;4.50;4.00;;;;;22.11;46.23;100797.41;5030895;28;45654;-77
2023/07/14 05:51:23;;;;;;;;;4.50;3.50;;;;;22.13;45.75;100790.03;5041496;28;45628;-75
2023/07/14 05:53:48;;;;;;;;;5.75;3.75;;;;;22.15;45.74;100784.53;5040506;28;46631;-80
2023/07/14 05:56:14;;;;;;;;;5.25;4.00;;;;;22.16;45.88;100783.53;5037787;28;45586;-74
2023/07/14 05:58:39;;;;;;;;;3.75;3.75;;;;;22.16;45.78;100791.53;5037869;28;45548;-78
2023/07/14 06:01:07;;;;;;;;;3.50;3.00;;;;;22.16;45.81;100772.84;5052485;28;45529;-81
2023/07/14 06:03:32;;;;;;;;;5.25;4.50;;;;;;;;5036000;28;46440;-74
2023/07/14 06:05:57;;;;;;;;;5.00;4.33;;;;;22.19;45.65;100753.78;5035646;28;45628;-73
2023/07/14 06:08:23;;;;;;;;;5.25;4.25;;;;;22.22;45.71;100758.78;5035676;28;45657;-75
2023/07/14 06:10:48;;;;;;;;;5.00;4.75;;;;;22.21;45.84;100789.16;5037752;28;45684;-75
2023/07/14 06:13:14;;;;;;;;;5.00;4.00;;;;;22.24;45.55;100790.66;5035723;28;46387;-77
2023/07/14 06:19:01;;;;;;;;;4.75;4.00;;;;;22.30;45.57;100765.88;5035047;28;45682;-83
2023/07/14 06:21:26;;;;;;;;;5.25;4.75;;;;;22.30;45.29;100777.38;5035104;28;45675;-82
2023/07/14 06:23:52;;;;;;;;;4.00;4.00;;;;;22.32;45.61;100778.06;5034762;28;46180;-82
2023/07/14 06:26:17;;;;;;;;;5.00;5.00;;;;;22.36;45.07;100779.34;5035236;28;46031;-82
2023/07/14 06:28:43;;;;;;;;;5.00;5.00;;;;;22.36;45.09;100789.19;5035745;28;45623;-82
2023/07/14 06:34:30;;;;;;;;;3.25;3.25;;;;;22.40;45.09;100755.78;5034933;28;45769;-83
2023/07/14 06:36:56;;;;;;;;;4.75;3.50;;;;;22.45;44.58;100740.88;5036298;28;45908;-82
2023/07/14 06:39:21;;;;;;;;;6.75;5.25;;;;;22.45;45.10;100734.72;5035320;28;45639;-80
2023/07/14 06:41:47;;;;;;;;;7.00;5.00;;;;;22.49;44.65;100744.84;5035282;28;45595;-82
2023/07/14 06:44:14;;;;;;;;;6.50;5.75;;;;;22.52;44.35;100755.16;5034660;28;45567;-82
2023/07/14 06:46:39;;;;;;;;;6.00;5.25;;;;;22.55;44.31;100754.78;5034828;28;45880;-82
2023/07/14 06:49:05;;;;;;;;;4.25;3.50;;;;;22.59;44.59;100747.25;5034307;28;45595;-81
2023/07/14 06:51:30;;;;;;;;;5.25;4.00;;;;;22.63;44.52;100747.69;5035049;28;45586;-81
2023/07/14 06:53:56;;;;;;;;;8.25;5.00;;;;;22.63;44.55;100729.00;5034484;28;45533;-82
2023/07/14 06:56:22;;;;;;;;;6.00;5.25;;;;;22.67;44.47;100730.31;5034691;28;45890;-79
2023/07/14 06:58:47;;;;;;;;;3.75;3.75;;;;;22.68;44.40;100734.59;5034588;28;45561;-79
2023/07/14 07:04:34;;;;;;;;;4.00;4.00;;;;;22.73;44.44;100727.72;5034509;28;45826;-81
2023/07/14 07:07:00;;;;;;;;;6.00;6.00;;;;;22.77;43.74;100730.88;5035013;28;45727;-81
2023/07/14 07:09:25;;;;;;;;;5.00;5.00;;;;;22.79;43.87;100724.31;5032972;28;45584;-82
2023/07/14 07:11:50;;;;;;;;;0.50;0.00;;;;;22.84;43.94;100729.09;5034497;28;45742;-82
2023/07/14 07:14:16;;;;;;;;;5.00;3.25;;;;;22.83;43.49;100719.47;5034129;28;46224;-82
2023/07/14 07:16:41;;;;;;;;;5.00;4.00;;;;;22.87;43.76;100718.91;5033762;28;46554;-81
2023/07/14 07:19:07;;;;;;;;;4.75;4.25;;;;;22.87;43.29;100705.53;5034143;28;45597;-82
2023/07/14 07:21:33;;;;;;;;;4.00;3.00;;;;;22.92;43.37;100713.00;5034010;28;45485;-82
2023/07/14 07:23:58;;;;;;;;;4.25;4.00;;;;;22.96;43.24;100716.94;5034026;28;45586;-83
2023/07/14 07:26:23;;;;;;;;;4.50;4.00;;;;;22.97;43.04;100719.44;5033957;28;46426;-84
2023/07/14 07:28:49;;;;;;;;;5.75;4.25;;;;;23.02;42.94;100705.50;5037322;28;45559;-83
2023/07/14 07:34:36;;;;;;;;;5.00;4.00;;;;;23.10;43.19;100708.09;5036834;28;45547;-82
2023/07/14 07:37:01;;;;;;;;;4.00;3.00;;;;;23.14;42.99;100703.19;5036929;28;46449;-83
2023/07/14 07:39:26;;;;;;;;;4.75;3.50;;;;;23.17;43.08;100702.78;5036950;28;45535;-82
2023/07/14 07:41:52;;;;;;;;;5.00;4.75;;;;;23.22;42.80;100703.03;5037520;28;45709;-83
2023/07/14 07:44:17;;;;;;;;;5.00;4.00;;;;;23.25;43.10;100705.38;5037253;28;46810;-82
2023/07/14 07:46:42;;;;;;;;;6.00;5.75;;;;;23.27;42.81;100701.47;5037315;28;45610;-83
2023/07/14 07:49:08;;;;;;;;;6.00;4.00;;;;;23.33;42.48;100700.72;5036772;28;45531;-82
2023/07/14 07:51:33;;;;;;;;;4.00;4.00;;;;;23.34;42.25;100680.97;5052115;28;45883;-78
2023/07/14 07:53:59;;;;;;;;;5.00;4.00;;;;;23.38;42.45;100676.06;5039705;28;46217;-80
2023/07/14 07:56:24;;;;;;;;;5.00;5.00;;;;;23.42;43.14;100677.38;5037110;28;46292;-79
2023/07/14 07:58:50;;;;;;;;;5.50;5.50;;;;;23.49;42.33;100675.59;5036967;28;45937;-81
2023/07/14 08:04:38;;;;;;;;;4.50;4.00;;;;;23.58;42.59;100657.59;5035763;28;45632;-73
2023/07/14 08:07:09;;;;;;;;;7.75;5.00;;;;;23.62;42.26;100659.69;5036774;28;45735;-73
2023/07/14 08:09:34;;;;;;;;;4.25;4.00;;;;;23.65;41.98;100647.75;5034701;28;45849;-72
2023/07/14 08:11:59;;;;;;;;;3.25;3.25;;;;;23.68;42.31;100639.34;5036613;28;45587;-75
2023/07/14 08:14:25;;;;;;;;;4.50;3.00;;;;;23.73;41.92;100645.78;5036144;28;46365;-73
2023/07/14 08:20:12;;;;;;;;;3.50;3.50;;;;;23.80;41.83;100653.88;5036242;28;45741;-72
2023/07/14 08:22:40;;;;;;;;;5.75;4.00;;;;;23.83;41.37;100656.16;5036345;28;45934;-82
2023/07/14 08:25:07;;;;;;;;;4.00;3.25;;;;;23.90;42.02;100658.88;5036974;28;45736;-79
2023/07/14 08:27:32;;;;;;;;;5.50;4.75;;;;;23.95;41.47;100649.25;5036229;28;45893;-73
2023/07/14 08:29:59;;;;;;;;;4.00;4.00;;;;;24.01;41.83;100661.84;5036342;28;45622;-74
2023/07/14 08:32:24;;;;;;;;;4.00;4.00;;;;;24.06;41.25;100645.19;5036333;28;45762;-74
2023/07/14 08:34:50;;;;;;;;;4.00;4.00;;;;;24.10;41.31;100647.28;5035703;28;46739;-76
2023/07/14 08:37:15;;;;;;;;;5.25;4.25;;;;;24.17;41.09;100639.31;5036003;28;46142;-74
2023/07/14 08:39:40;;;;;;;;;3.75;3.50;;;;;24.22;41.39;100648.44;5034736;28;45604;-73
2023/07/14 08:42:22;;;;;;;;;5.00;4.25;;;;;24.25;41.50;100636.50;5034405;28;45732;-72
2023/07/14 08:49:16;;;;;;;;;4.25;3.25;;;;;24.28;40.47;100624.56;5028626;28;46201;-73
2023/07/14 08:51:45;;;;;;;;;4.25;4.25;;;;;24.27;40.24;100622.91;5035927;28;45753;-74
2023/07/14 08:54:24;;;;;;;;;4.00;3.75;;;;;24.29;39.79;100612.84;5036277;28;45723;-73
2023/07/14 08:56:52;;;;;;;;;3.00;3.00;;;;;24.29;40.29;100607.47;5035958;28;46481;-74
2023/07/14 08:59:30;;;;;;;;;6.00;5.00;;;;;24.32;40.03;100604.38;5035249;28;46879;-74
2023/07/14 09:05:26;;;;;;;;;3.00;3.00;;;;;24.37;39.48;100597.41;5035722;28;45640;-75
2023/07/14 09:07:52;;;;;;;;;3.75;3.75;;;;;24.41;39.54;100593.31;5035103;28;46536;-75
2023/07/14 09:10:18;;;;;;;;;4.00;4.00;;;;;24.43;39.67;100583.22;5035179;28;46939;-74
2023/07/14 09:13:22;;;;;;;;;4.00;3.25;;;;;24.48;39.34;100586.13;5035443;28;45520;-73
2023/07/14 09:15:49;;;;;;;;;7.00;3.75;;;;;24.51;39.20;100572.31;4993507;28;46049;-73
2023/07/14 09:18:14;;;;;;;;;3.00;3.00;;;;;24.54;39.42;100568.44;4976829;28;46481;-73
2023/07/14 09:21:13;;;;;;;;;3.50;3.50;;;;;24.58;39.10;100572.34;4993355;28;47263;-73
2023/07/14 09:23:59;;;;;;;;;6.00;5.00;;;;;24.62;38.44;100571.75;4993112;28;45649;-72
2023/07/14 09:26:34;;;;;;;;;4.00;4.00;;;;;24.65;38.68;100567.84;4993770;28;45645;-74
2023/07/14 09:29:10;;;;;;;;;3.00;3.00;;;;;24.67;38.32;100560.41;4993077;28;47511;-74
2023/07/14 09:31:48;;;;;;;;;5.50;4.00;;;;;24.69;38.46;100558.38;4993630;28;46356;-75
2023/07/14 09:34:32;;;;;;;;;4.75;4.00;;;;;24.71;38.35;100555.50;4993648;28;45672;-73
2023/07/14 09:36:58;;;;;;;;;5.00;4.00;;;;;24.72;38.40;100555.31;4976894;28;45610;-74
2023/07/14 09:39:30;;;;;;;;;3.25;3.25;;;;;24.73;38.17;100548.91;4993197;28;47654;-74
2023/07/14 09:42:00;;;;;;;;;5.00;3.75;;;;;24.76;37.87;100550.38;4992951;28;46939;-77
2023/07/14 09:44:25;;;;;;;;;1.50;1.00;;;;;24.76;38.09;100553.88;4993123;28;45873;-75
2023/07/14 09:46:51;;;;;;;;;2.50;2.25;;;;;24.79;37.92;100544.59;4993267;28;45530;-73
2023/07/14 09:49:27;;;;;;;;;3.00;3.00;;;;;24.82;37.94;100536.16;4992932;28;46622;-73
2023/07/14 09:52:10;;;;;;;;;4.00;4.00;;;;;24.85;37.83;100533.88;5023789;28;46337;-74
2023/07/14 09:54:42;;;;;;;;;3.75;3.75;;;;;24.88;37.77;100536.19;5034862;28;45493;-73
2023/07/14 09:57:11;;;;;;;;;3.25;3.00;;;;;24.90;37.55;100523.41;5034879;28;45627;-74
2023/07/14 09:59:56;;;;;;;;;2.00;2.00;;;;;24.93;37.20;100514.13;5034570;28;46673;-74
2023/07/14 10:02:27;;;;;;;;;3.25;3.00;;;;;24.96;36.94;100506.50;5034443;28;47276;-72
2023/07/14 10:04:59;;;;;;;;;2.50;2.00;;;;;25.00;37.16;100509.59;5035079;28;45712;-73
2023/07/14 10:07:25;;;;;;;;;2.75;2.25;;;;;25.02;36.92;100497.63;5034422;28;45604;-72
2023/07/14 10:10:07;;;;;;;;;3.50;3.50;;;;;25.05;36.72;100491.84;5033064;28;47507;-72
2023/07/14 10:12:44;;;;;;;;;2.00;2.00;;;;;25.06;36.42;100487.31;5034589;28;45600;-72
2023/07/14 10:15:32;;;;;;;;;3.75;3.75;;;;;25.12;36.38;100486.50;5034401;28;45626;-74
2023/07/14 10:18:03;;;;;;;;;6.50;5.50;;;;;25.15;36.27;100493.31;5034627;28;45761;-72
2023/07/14 10:20:31;;;;;;;;;5.00;4.00;;;;;25.18;36.31;100476.81;5033763;28;46518;-74
2023/07/14 10:22:58;;;;;;;;;3.00;2.00;;;;;25.22;35.75;100483.41;5034246;28;46200;-78
2023/07/14 10:25:26;;;;;;;;;3.25;2.75;;;;;25.24;36.19;100468.75;5034521;28;45742;-79
2023/07/14 10:27:59;;;;;;;;;5.00;4.00;;;;;25.28;35.96;100466.47;5034374;28;45875;-75
2023/07/14 10:34:06;;;;;;;;;4.00;3.00;;;;;25.37;35.75;100458.00;5034137;28;46085;-77
2023/07/14 10:36:37;;;;;;;;;3.50;3.25;;;;;25.44;35.86;100449.94;5033099;28;45585;-75
2023/07/14 10:39:22;;;;;;;;;3.00;3.00;;;;;25.52;36.12;100455.09;5032940;28;46015;-76
2023/07/14 10:41:48;;;;;;;;;3.00;3.00;;;;;25.60;35.89;100438.78;5033892;28;47672;-77
2023/07/14 10:44:33;;;;;;;;;3.00;3.00;;;;;25.70;35.87;100430.28;5034415;28;45959;-76
2023/07/14 10:50:25;;;;;;;;;4.50;3.50;;;;;25.92;35.27;100423.59;5032798;28;45778;-75
2023/07/14 10:52:58;;;;;;;;;2.25;2.00;;;;;26.01;35.52;100413.44;5034133;28;45595;-74
2023/07/14 10:55:29;;;;;;;;;5.00;4.00;;;;;26.06;35.27;100417.13;5032377;28;48077;-73
2023/07/14 10:58:23;;;;;;;;;3.00;2.00;;;;;26.13;35.22;100420.59;5033771;28;45603;-74
2023/07/14 11:00:56;;;;;;;;;3.50;2.50;;;;;26.18;35.16;100407.34;5032905;28;45583;-73
2023/07/14 11:06:49;;;;;;;;;3.00;3.00;;;;;26.35;34.89;100374.63;5033675;28;45925;-79
2023/07/14 11:09:15;;;;;;;;;2.00;2.00;;;;;26.43;34.72;100375.19;5032013;28;45693;-78
2023/07/14 11:11:58;;;;;;;;;5.00;3.75;;;;;26.53;34.42;100388.13;5034049;28;45459;-79
2023/07/14 11:14:44;;;;;;;;;4.00;3.00;;;;;26.61;34.22;100377.13;5033713;28;45717;-79
2023/07/14 11:17:51;;;;;;;;;3.00;3.00;;;;;26.69;34.50;100376.84;5032425;28;47343;-80
2023/07/14 11:20:23;;;;;;;;;2.25;2.25;;;;;26.77;34.39;100376.59;5034943;28;45492;-79
2023/07/14 11:23:11;;;;;;;;;5.50;2.00;;;;;26.86;34.13;100366.34;5035178;28;45721;-79
2023/07/14 11:26:12;;;;;;;;;4.00;3.00;;;;;26.94;33.59;100363.41;5033186;28;45665;-78
2023/07/14 11:28:45;;;;;;;;;2.25;2.25;;;;;27.05;33.14;100363.50;5040702;28;45615;-77
2023/07/14 11:34:33;;;;;;;;;2.25;2.00;;;;;27.20;33.14;100347.03;5033653;28;45677;-79
2023/07/14 11:37:23;;;;;;;;;2.00;2.00;;;;;27.21;32.65;100340.56;5033742;28;45505;-79
2023/07/14 11:39:52;;;;;;;;;4.00;3.00;;;;;27.22;32.28;100333.31;5033696;28;46477;-80
2023/07/14 11:42:33;;;;;;;;;3.00;3.00;;;;;27.21;32.92;100321.72;5033630;28;45460;-79
2023/07/14 11:45:02;;;;;;;;;2.00;2.00;;;;;27.25;32.92;100328.34;5033941;28;45812;-79
2023/07/14 11:51:06;;;;;;;;;3.00;2.00;;;;;27.31;33.03;100318.53;5031264;28;45760;-79
2023/07/14 11:53:39;;;;;;;;;3.25;3.25;;;;;27.32;32.74;100312.91;5033422;28;45676;-80
2023/07/14 11:56:25;;;;;;;;;3.00;2.00;;;;;27.35;32.63;100317.84;5033602;28;45504;-80
2023/07/14 11:59:16;;;;;;;;;3.00;3.00;;;;;27.37;32.50;100296.13;5033669;28;45656;-80
2023/07/14 12:02:26;;;;;;;;;3.00;2.75;;;;;27.44;32.85;100294.13;5033980;28;46585;-79
2023/07/14 12:05:01;;;;;;;;;2.75;2.50;;;;;27.48;32.53;100288.06;5033539;28;45694;-79
2023/07/14 12:07:28;;;;;;;;;3.00;3.00;;;;;27.52;32.52;100283.09;5033975;28;45675;-81
2023/07/14 12:10:11;;;;;;;;;4.75;3.25;;;;;27.59;32.10;100281.13;5035214;28;46622;-78
2023/07/14 12:12:39;;;;;;;;;3.00;3.00;;;;;27.64;31.97;100275.09;5035646;28;45992;-91
2023/07/14 12:15:44;;;;;;;;;2.00;2.00;;;;;27.70;32.42;100268.75;5036426;28;45661;-76
2023/07/14 12:18:21;;;;;;;;;3.00;2.75;;;;;27.75;31.70;100256.25;4995532;28;46006;-75
2023/07/14 12:20:48;;;;;;;;;1.00;0.50;;;;;27.78;32.04;100253.13;4995967;28;46680;-74
2023/07/14 12:23:21;;;;;;;;;3.25;3.00;;;;;27.83;31.94;100242.47;4995501;28;45814;-74
2023/07/14 12:25:51;;;;;;;;;2.00;2.00;;;;;27.85;31.42;100239.56;4995659;28;45846;-73
2023/07/14 12:28:42;;;;;;;;;3.00;2.25;;;;;27.90;31.27;100218.13;4994914;28;45583;-73
2023/07/14 12:31:13;;;;;;;;;2.25;2.00;;;;;27.96;32.10;100220.69;4992343;28;45515;-74
2023/07/14 12:33:39;;;;;;;;;2.25;2.25;;;;;28.03;31.39;100212.50;4995524;28;45825;-73
2023/07/14 12:36:05;;;;;;;;;2.25;2.25;;;;;28.08;30.87;100226.09;4995019;28;45684;-76
2023/07/14 12:38:33;;;;;;;;;3.00;3.00;;;;;28.12;31.14;100215.69;4994953;28;46084;-74
2023/07/14 12:40:58;;;;;;;;;4.00;3.00;;;;;28.17;31.09;100211.28;4978125;28;47646;-73
2023/07/14 12:43:36;;;;;;;;;3.25;3.00;;;;;28.24;30.95;100205.75;4978018;28;47787;-75
2023/07/14 12:46:14;;;;;;;;;2.75;2.75;;;;;28.31;30.89;100212.69;4995140;28;45665;-75